Time;durP1;ratioP1;P1;durP2;ratioP2;P2;SDS_P1;SDS_P2;PMS_P1;PMS_P2;Temp;Humidity;BMP_temperature;BMP_pressure;BME280_temperature;BME280_humidity;BME280_pressure;Samples;Min_cycle;Max_cycle;Signal;HPM_P1;HPM_P2
2021/01/05 05:03:06;;;;;;;1999.90;999.90;;;4.40;99.90;;;;;;4838927;29;20666;-77
2021/01/05 05:05:47;;;;;;;1999.90;999.90;;;4.40;99.90;;;;;;4841257;29;20531;-77
2021/01/05 05:08:29;;;;;;;1999.90;999.90;;;4.50;99.90;;;;;;4842794;29;20257;-77
2021/01/05 05:11:00;;;;;;;1999.90;999.90;;;4.50;99.90;;;;;;4844720;29;20648;-77
2021/01/05 05:13:36;;;;;;;1999.90;999.90;;;4.50;99.90;;;;;;4845290;29;20282;-77
2021/01/05 05:16:14;;;;;;;1999.90;999.90;;;4.50;99.90;;;;;;4844361;29;20233;-76
2021/01/05 05:19:01;;;;;;;1999.90;999.90;;;4.40;99.90;;;;;;4844260;29;20208;-77
2021/01/05 05:21:36;;;;;;;1999.90;999.90;;;4.50;99.90;;;;;;4843910;29;20703;-77
2021/01/05 05:24:27;;;;;;;1999.90;999.90;;;4.40;99.90;;;;;;4843098;29;20799;-75
2021/01/05 05:27:00;;;;;;;1999.90;999.90;;;4.40;99.90;;;;;;4842590;29;20232;-76
2021/01/05 05:29:45;;;;;;;1999.90;999.90;;;4.30;99.90;;;;;;4842729;29;20201;-75
2021/01/05 05:32:23;;;;;;;1999.90;999.90;;;4.30;99.90;;;;;;4843139;29;20233;-76
2021/01/05 05:35:44;;;;;;;1999.90;999.90;;;4.30;99.90;;;;;;4842922;29;20229;-75
2021/01/05 05:38:29;;;;;;;1999.90;999.90;;;4.40;99.90;;;;;;4842908;29;20213;-75
2021/01/05 05:41:02;;;;;;;1999.90;999.90;;;4.40;99.90;;;;;;4843926;29;20725;-75
2021/01/05 05:43:48;;;;;;;1999.90;999.90;;;4.40;99.90;;;;;;4843993;29;20346;-75
2021/01/05 05:46:21;;;;;;;1999.90;999.90;;;4.40;99.90;;;;;;4843478;29;20266;-76
2021/01/05 05:48:54;;;;;;;1999.90;999.90;;;4.40;99.90;;;;;;4841067;29;20214;-76
2021/01/05 05:51:29;;;;;;;1999.90;999.90;;;4.30;99.90;;;;;;4857912;29;20224;-76
2021/01/05 05:54:00;;;;;;;1999.90;999.90;;;4.20;99.90;;;;;;4862314;29;20212;-77
2021/01/05 05:56:46;;;;;;;1999.90;999.90;;;4.30;99.90;;;;;;4862325;29;20221;-76
2021/01/05 05:59:14;;;;;;;1999.90;999.90;;;4.30;99.90;;;;;;4861547;29;20682;-76
2021/01/05 06:01:41;;;;;;;1999.90;999.90;;;4.30;99.90;;;;;;4861196;29;20272;-76
2021/01/05 06:04:08;;;;;;;1999.90;999.90;;;4.40;99.90;;;;;;4860974;29;20283;-77
2021/01/05 06:06:37;;;;;;;1999.90;999.90;;;4.10;99.90;;;;;;4844827;29;20217;-76
2021/01/05 06:09:04;;;;;;;1999.90;999.90;;;4.10;99.90;;;;;;4844169;29;20217;-76
2021/01/05 06:11:33;;;;;;;1999.90;999.90;;;4.20;99.90;;;;;;4843431;29;20233;-77
2021/01/05 06:14:01;;;;;;;1999.90;999.90;;;4.20;99.90;;;;;;4843308;29;20229;-76
2021/01/05 06:16:30;;;;;;;1999.90;999.90;;;4.20;99.90;;;;;;4843131;29;20230;-77
2021/01/05 06:18:57;;;;;;;1999.90;999.90;;;4.20;99.90;;;;;;4842601;29;20213;-76
2021/01/05 06:21:24;;;;;;;1999.90;999.90;;;4.30;99.90;;;;;;4843234;29;20735;-77
2021/01/05 06:23:51;;;;;;;1999.90;999.90;;;4.40;99.90;;;;;;4843738;29;20679;-77
2021/01/05 06:26:19;;;;;;;1999.90;999.90;;;4.40;99.90;;;;;;4844457;29;20206;-77
2021/01/05 06:28:48;;;;;;;1999.90;999.90;;;4.30;99.90;;;;;;4842836;29;20717;-77
2021/01/05 06:31:15;;;;;;;1999.90;999.90;;;4.30;99.90;;;;;;4841753;29;20664;-77
2021/01/05 06:33:42;;;;;;;1999.90;999.90;;;4.30;99.90;;;;;;4840282;29;20631;-78
2021/01/05 06:36:10;;;;;;;1999.90;999.90;;;4.30;99.90;;;;;;4842029;29;20217;-78
2021/01/05 06:38:36;;;;;;;1999.90;999.90;;;4.40;99.90;;;;;;4842384;29;20201;-78
2021/01/05 06:41:04;;;;;;;1999.90;999.90;;;4.50;99.90;;;;;;4843586;29;20722;-78
2021/01/05 06:43:31;;;;;;;1999.90;999.90;;;4.50;99.90;;;;;;4844168;29;20273;-78
2021/01/05 06:45:58;;;;;;;1999.90;999.90;;;4.60;99.90;;;;;;4844145;29;20201;-78
2021/01/05 06:48:26;;;;;;;1999.90;999.90;;;4.50;99.90;;;;;;4841518;29;20686;-77
2021/01/05 06:50:52;;;;;;;1999.90;999.90;;;4.50;99.90;;;;;;4844085;29;20237;-77
2021/01/05 06:53:20;;;;;;;1999.90;999.90;;;4.50;99.90;;;;;;4843530;29;20596;-78
2021/01/05 06:55:47;;;;;;;1999.90;999.90;;;4.50;99.90;;;;;;4842915;29;20229;-78
2021/01/05 06:58:14;;;;;;;1999.90;999.90;;;4.40;99.90;;;;;;4842917;29;20217;-78
2021/01/05 07:00:41;;;;;;;1999.90;999.90;;;4.40;99.90;;;;;;4843058;29;20241;-78
2021/01/05 07:03:08;;;;;;;1999.90;999.90;;;4.30;99.90;;;;;;4844668;29;20682;-78
2021/01/05 07:05:35;;;;;;;1999.90;999.90;;;4.30;99.90;;;;;;4843892;29;20201;-78
2021/01/05 07:08:02;;;;;;;1999.90;999.90;;;4.20;99.90;;;;;;4843975;29;20213;-78
2021/01/05 07:10:30;;;;;;;1999.90;999.90;;;4.30;99.90;;;;;;4843201;29;20213;-79
2021/01/05 07:12:57;;;;;;;1999.90;999.90;;;4.30;99.90;;;;;;4844821;29;20632;-78
2021/01/05 07:15:29;;;;;;;1999.90;999.90;;;4.30;99.90;;;;;;4823551;29;20338;-77
2021/01/05 07:17:56;;;;;;;1999.90;999.90;;;4.30;99.90;;;;;;4826729;29;20597;-77
2021/01/05 07:20:23;;;;;;;1999.90;999.90;;;4.20;99.90;;;;;;4829240;29;20316;-78
2021/01/05 07:22:50;;;;;;;1999.90;999.90;;;4.20;99.90;;;;;;4842059;29;20225;-77
2021/01/05 07:25:16;;;;;;;1999.90;999.90;;;4.10;99.90;;;;;;4842553;29;20206;-77
2021/01/05 07:27:43;;;;;;;1999.90;999.90;;;4.10;99.90;;;;;;4840806;29;20213;-77
2021/01/05 07:30:12;;;;;;;1999.90;999.90;;;4.20;99.90;;;;;;4839051;29;20228;-77
2021/01/05 07:32:40;;;;;;;1999.90;999.90;;;4.10;99.90;;;;;;4841126;29;20210;-76
2021/01/05 07:35:08;;;;;;;1999.90;999.90;;;4.10;99.90;;;;;;4839702;29;20648;-77
2021/01/05 07:37:38;;;;;;;1999.90;999.90;;;4.10;99.90;;;;;;4838077;29;20256;-77
2021/01/05 07:40:06;;;;;;;1999.90;999.90;;;4.10;99.90;;;;;;4840534;29;20209;-75
2021/01/05 07:42:33;;;;;;;1999.90;999.90;;;4.30;99.90;;;;;;4840754;29;20266;-76
2021/01/05 07:45:03;;;;;;;1999.90;999.90;;;4.40;99.90;;;;;;4846034;29;20278;-76
2021/01/05 07:47:34;;;;;;;1999.90;999.90;;;4.50;99.90;;;;;;4841257;29;20269;-75
2021/01/05 07:50:01;;;;;;;1999.90;999.90;;;4.40;99.90;;;;;;4840506;29;20209;-76
2021/01/05 07:52:34;;;;;;;1999.90;999.90;;;4.30;99.90;;;;;;4840633;29;20711;-75
2021/01/05 07:55:03;;;;;;;1999.90;999.90;;;4.30;99.90;;;;;;4840907;29;20229;-76
2021/01/05 07:57:30;;;;;;;1999.90;999.90;;;4.30;99.90;;;;;;4840949;29;20629;-76
2021/01/05 07:59:57;;;;;;;1999.90;999.90;;;4.20;99.90;;;;;;4840788;29;20327;-76
2021/01/05 08:02:24;;;;;;;1999.90;999.90;;;4.20;99.90;;;;;;4838428;29;20249;-75
2021/01/05 08:04:51;;;;;;;1999.90;999.90;;;4.10;99.90;;;;;;4840849;29;20274;-75
2021/01/05 08:07:18;;;;;;;1999.90;999.90;;;4.20;99.90;;;;;;4841178;29;20209;-75
2021/01/05 08:09:45;;;;;;;1999.90;999.90;;;4.20;99.90;;;;;;4840369;29;20205;-75
2021/01/05 08:12:14;;;;;;;1999.90;999.90;;;4.00;99.90;;;;;;4838934;29;20289;-75
2021/01/05 08:14:41;;;;;;;1999.90;999.90;;;4.00;99.90;;;;;;4840540;29;20210;-75
2021/01/05 08:17:09;;;;;;;1999.90;999.90;;;4.10;99.90;;;;;;4840805;29;20698;-75
2021/01/05 08:19:36;;;;;;;1999.90;999.90;;;4.10;99.90;;;;;;4840453;29;20217;-75
2021/01/05 08:22:03;;;;;;;1999.90;999.90;;;4.00;99.90;;;;;;4840335;29;20237;-74
2021/01/05 08:24:31;;;;;;;1999.90;999.90;;;4.00;99.90;;;;;;4839935;29;20242;-74
2021/01/05 08:26:58;;;;;;;1999.90;999.90;;;4.00;99.90;;;;;;4840988;29;20266;-74
2021/01/05 08:29:25;;;;;;;1999.90;999.90;;;4.10;99.90;;;;;;4833288;29;20209;-74
2021/01/05 08:31:51;;;;;;;1999.90;999.90;;;4.20;99.90;;;;;;4841026;29;20579;-74
2021/01/05 08:34:18;;;;;;;1999.90;999.90;;;4.20;99.90;;;;;;4840604;29;20671;-75
2021/01/05 08:36:45;;;;;;;1999.90;999.90;;;4.30;99.90;;;;;;4840819;29;20265;-75
2021/01/05 08:39:13;;;;;;;1999.90;999.90;;;4.20;99.90;;;;;;4840545;29;20212;-74
2021/01/05 08:41:43;;;;;;;1999.90;999.90;;;4.20;99.90;;;;;;4840553;29;20660;-75
2021/01/05 08:44:11;;;;;;;1999.90;999.90;;;4.20;99.90;;;;;;4844266;29;20213;-75
2021/01/05 08:46:38;;;;;;;1999.90;999.90;;;4.30;99.90;;;;;;4844444;29;20209;-75
2021/01/05 08:49:05;;;;;;;1999.90;999.90;;;4.20;99.90;;;;;;4842383;29;20698;-76
2021/01/05 08:51:33;;;;;;;1999.90;999.90;;;4.00;99.90;;;;;;4844380;29;20767;-75
2021/01/05 08:54:00;;;;;;;1999.90;999.90;;;3.90;99.90;;;;;;4844135;29;20735;-74
2021/01/05 08:56:28;;;;;;;1999.90;999.90;;;4.00;99.90;;;;;;4844498;29;20228;-75
2021/01/05 08:58:56;;;;;;;1999.90;999.90;;;3.90;99.90;;;;;;4843967;29;20262;-75
2021/01/05 09:01:25;;;;;;;1999.90;999.90;;;3.90;99.90;;;;;;4843710;29;20248;-75
2021/01/05 09:03:52;;;;;;;1999.90;999.90;;;4.00;99.90;;;;;;4844172;29;20205;-75
2021/01/05 09:06:24;;;;;;;1999.90;999.90;;;3.90;99.90;;;;;;4842022;29;20217;-76
2021/01/05 09:08:52;;;;;;;1999.90;999.90;;;3.80;99.90;;;;;;4845484;29;20214;-75
2021/01/05 09:11:23;;;;;;;1999.90;999.90;;;3.70;99.90;;;;;;4843862;29;20235;-76
2021/01/05 09:13:50;;;;;;;1999.90;999.90;;;3.80;99.90;;;;;;4840291;29;20213;-75
2021/01/05 09:16:23;;;;;;;1999.90;999.90;;;3.90;99.90;;;;;;4843768;29;20599;-75
2021/01/05 09:18:50;;;;;;;1999.90;999.90;;;3.80;99.90;;;;;;4844048;29;20279;-75
2021/01/05 09:21:18;;;;;;;1999.90;999.90;;;3.80;99.90;;;;;;4843861;29;20668;-75
2021/01/05 09:23:45;;;;;;;1999.90;999.90;;;3.90;99.90;;;;;;4843619;29;20210;-75
2021/01/05 09:26:19;;;;;;;1999.90;999.90;;;4.10;99.90;;;;;;4843844;29;20209;-75
2021/01/05 09:28:46;;;;;;;1999.90;999.90;;;4.20;99.90;;;;;;4843301;29;20641;-75
2021/01/05 09:31:13;;;;;;;1999.90;999.90;;;4.30;99.90;;;;;;4843801;29;20286;-75
2021/01/05 09:33:41;;;;;;;1999.90;999.90;;;4.30;99.90;;;;;;4843978;29;20217;-75
2021/01/05 09:36:10;;;;;;;1999.90;999.90;;;4.50;99.90;;;;;;4843437;29;20281;-75
2021/01/05 09:38:38;;;;;;;1999.90;999.90;;;4.50;99.90;;;;;;4843480;29;20285;-75
2021/01/05 09:41:06;;;;;;;1999.90;999.90;;;4.50;99.90;;;;;;4843291;29;20233;-75
2021/01/05 09:43:33;;;;;;;1999.90;999.90;;;4.50;99.90;;;;;;4843153;29;20209;-75
2021/01/05 09:45:59;;;;;;;1999.90;999.90;;;4.40;99.90;;;;;;4843203;29;20205;-75
2021/01/05 09:48:26;;;;;;;1999.90;999.90;;;4.20;99.90;;;;;;4843096;29;20209;-75
2021/01/05 09:50:54;;;;;;;1999.90;999.90;;;4.30;99.90;;;;;;4843206;29;20237;-75
2021/01/05 09:53:21;;;;;;;1999.90;999.90;;;4.30;99.90;;;;;;4842851;29;20209;-75
2021/01/05 09:55:48;;;;;;;1999.90;999.90;;;4.20;99.90;;;;;;4842221;29;20651;-75
2021/01/05 09:58:15;;;;;;;1999.90;999.90;;;4.00;99.90;;;;;;4842743;29;20234;-75
2021/01/05 10:00:42;;;;;;;1999.90;999.90;;;4.00;99.90;;;;;;4842882;29;20656;-75
2021/01/05 10:03:09;;;;;;;1999.90;999.90;;;4.00;99.90;;;;;;4843045;29;20242;-75
2021/01/05 10:05:36;;;;;;;1999.90;999.90;;;3.90;99.90;;;;;;4839516;29;20206;-75
2021/01/05 10:08:03;;;;;;;1999.90;999.90;;;4.00;99.90;;;;;;4842653;29;20568;-75
2021/01/05 10:10:30;;;;;;;1999.90;999.90;;;3.80;99.90;;;;;;4842331;29;20827;-75
2021/01/05 10:12:57;;;;;;;1999.90;999.90;;;3.70;99.90;;;;;;4843368;29;20661;-75
2021/01/05 10:15:26;;;;;;;1999.90;999.90;;;3.80;99.90;;;;;;4842705;29;20262;-75
2021/01/05 10:17:53;;;;;;;1999.90;999.90;;;3.80;99.90;;;;;;4842313;29;20205;-75
2021/01/05 10:20:21;;;;;;;1999.90;999.90;;;3.80;99.90;;;;;;4841994;29;20210;-75
2021/01/05 10:22:48;;;;;;;1999.90;999.90;;;3.80;99.90;;;;;;4842313;29;20270;-75
2021/01/05 10:25:16;;;;;;;1999.90;999.90;;;3.70;99.90;;;;;;4842933;29;20569;-74
2021/01/05 10:27:43;;;;;;;1999.90;999.90;;;3.50;99.90;;;;;;4842321;29;20278;-74
2021/01/05 10:30:14;;;;;;;1999.90;999.90;;;3.30;99.90;;;;;;4842622;29;20217;-74
2021/01/05 10:32:42;;;;;;;1999.90;999.90;;;3.40;99.90;;;;;;4842507;29;20214;-74
2021/01/05 10:35:11;;;;;;;1999.90;999.90;;;3.50;99.90;;;;;;4842551;29;20700;-75
2021/01/05 10:37:38;;;;;;;1999.90;999.90;;;3.40;99.90;;;;;;4842031;29;20229;-74
2021/01/05 10:40:08;;;;;;;1999.90;999.90;;;3.40;99.90;;;;;;4842132;29;20246;-74
2021/01/05 10:42:40;;;;;;;1999.90;999.90;;;3.50;99.90;;;;;;4841979;29;20229;-74
2021/01/05 10:45:08;;;;;;;1999.90;999.90;;;3.50;99.90;;;;;;4843462;29;20209;-74
2021/01/05 10:47:35;;;;;;;1999.90;999.90;;;3.40;99.90;;;;;;4841377;29;20201;-74
2021/01/05 10:50:03;;;;;;;1999.90;999.90;;;3.40;99.90;;;;;;4841966;29;20216;-74
2021/01/05 10:52:31;;;;;;;1999.90;999.90;;;3.40;99.90;;;;;;4841991;29;20236;-74
2021/01/05 10:54:58;;;;;;;1999.90;999.90;;;3.40;99.90;;;;;;4841855;29;20210;-74
2021/01/05 10:57:25;;;;;;;1999.90;999.90;;;3.40;99.90;;;;;;4841816;29;20233;-74
2021/01/05 10:59:52;;;;;;;1999.90;999.90;;;3.50;99.90;;;;;;4841381;29;20667;-74
2021/01/05 11:02:19;;;;;;;1999.90;999.90;;;3.40;99.90;;;;;;4841345;29;20294;-74
2021/01/05 11:04:46;;;;;;;1999.90;999.90;;;3.20;99.90;;;;;;4841801;29;20209;-75
2021/01/05 11:07:15;;;;;;;1999.90;999.90;;;3.20;99.90;;;;;;4841475;29;20507;-74
2021/01/05 11:09:44;;;;;;;1999.90;999.90;;;3.20;99.90;;;;;;4841052;29;20209;-75
2021/01/05 11:12:13;;;;;;;1999.90;999.90;;;3.20;99.90;;;;;;4841931;29;20225;-73
2021/01/05 11:14:41;;;;;;;1999.90;999.90;;;3.30;99.90;;;;;;4842000;29;20281;-73
2021/01/05 11:17:09;;;;;;;1999.90;999.90;;;3.30;99.90;;;;;;4840061;29;20229;-74
2021/01/05 11:19:37;;;;;;;1999.90;999.90;;;3.40;99.90;;;;;;4841270;29;20228;-74
2021/01/05 11:22:06;;;;;;;1999.90;999.90;;;3.30;99.90;;;;;;4843573;29;20233;-78
2021/01/05 11:24:36;;;;;;;1999.90;999.90;;;3.20;99.90;;;;;;4845488;29;20234;-74
2021/01/05 11:27:04;;;;;;;1999.90;999.90;;;3.20;99.90;;;;;;4842844;29;20694;-75
2021/01/05 11:29:31;;;;;;;1999.90;999.90;;;3.30;99.90;;;;;;4842411;29;20279;-74
2021/01/05 11:31:59;;;;;;;1999.90;999.90;;;3.40;99.90;;;;;;4841697;29;20286;-74
2021/01/05 11:34:27;;;;;;;1999.90;999.90;;;3.70;99.90;;;;;;4842258;29;20209;-75
2021/01/05 11:36:54;;;;;;;1999.90;999.90;;;3.70;99.90;;;;;;4841415;29;20271;-74
2021/01/05 11:39:22;;;;;;;1999.90;999.90;;;3.60;99.90;;;;;;4840960;29;20693;-75
2021/01/05 11:41:49;;;;;;;1999.90;999.90;;;3.60;99.90;;;;;;4841072;29;20281;-76
2021/01/05 11:44:16;;;;;;;1999.90;999.90;;;3.40;99.90;;;;;;4841285;29;20289;-75
2021/01/05 11:46:44;;;;;;;1999.90;999.90;;;3.30;99.90;;;;;;4840743;29;20205;-75
2021/01/05 11:49:11;;;;;;;1999.90;999.90;;;3.40;99.90;;;;;;4841079;29;20221;-75
2021/01/05 11:51:38;;;;;;;1999.90;999.90;;;3.40;99.90;;;;;;4840709;29;20264;-75
2021/01/05 11:54:05;;;;;;;1999.90;999.90;;;3.60;99.90;;;;;;4840832;29;20568;-75
2021/01/05 11:56:34;;;;;;;1999.90;999.90;;;3.70;99.90;;;;;;4836813;29;20283;-75
2021/01/05 11:59:01;;;;;;;1999.90;999.90;;;3.60;99.90;;;;;;4839248;29;20277;-76
2021/01/05 12:01:34;;;;;;;1999.90;999.90;;;3.70;99.90;;;;;;4840218;29;20237;-76
2021/01/05 12:04:01;;;;;;;1999.90;999.90;;;3.70;99.90;;;;;;4839484;29;20578;-75
2021/01/05 12:06:28;;;;;;;1999.90;999.90;;;3.80;99.90;;;;;;4840491;29;20266;-76
2021/01/05 12:08:56;;;;;;;1999.90;999.90;;;3.80;99.90;;;;;;4842819;29;20230;-79
2021/01/05 12:11:24;;;;;;;1999.90;999.90;;;3.70;99.90;;;;;;4847801;29;20278;-81
2021/01/05 12:13:52;;;;;;;1999.90;999.90;;;3.60;99.90;;;;;;4846995;29;20234;-81
2021/01/05 12:16:35;;;;;;;1999.90;999.90;;;3.50;99.90;;;;;;4846678;29;20727;-80
2021/01/05 12:19:04;;;;;;;1999.90;999.90;;;3.50;99.90;;;;;;4845917;29;20209;-80
2021/01/05 12:21:33;;;;;;;1999.90;999.90;;;3.50;99.90;;;;;;4846516;29;20240;-80
2021/01/05 12:24:01;;;;;;;1999.90;999.90;;;3.50;99.90;;;;;;4848086;29;20911;-80
2021/01/05 12:26:30;;;;;;;1999.90;999.90;;;3.40;99.90;;;;;;4848947;29;20216;-78
2021/01/05 12:28:58;;;;;;;1999.90;999.90;;;3.40;99.90;;;;;;4846092;29;20205;-80
2021/01/05 12:31:26;;;;;;;1999.90;999.90;;;3.50;99.90;;;;;;4847124;29;20225;-78
2021/01/05 12:33:54;;;;;;;1999.90;999.90;;;3.40;99.90;;;;;;4846817;29;20269;-80
2021/01/05 12:36:26;;;;;;;1999.90;999.90;;;3.30;99.90;;;;;;4846955;29;20237;-81
2021/01/05 12:38:57;;;;;;;1999.90;999.90;;;3.30;99.90;;;;;;4845820;29;20213;-79
2021/01/05 12:41:32;;;;;;;1999.90;999.90;;;3.40;99.90;;;;;;4844103;29;20241;-78
2021/01/05 12:44:00;;;;;;;1999.90;999.90;;;3.50;99.90;;;;;;4834463;29;20204;-77
2021/01/05 12:46:30;;;;;;;1999.90;999.90;;;3.40;99.90;;;;;;4841774;29;20258;-79
2021/01/05 12:48:57;;;;;;;1999.90;999.90;;;3.30;99.90;;;;;;4841039;29;20285;-80
2021/01/05 12:51:35;;;;;;;1999.90;999.90;;;3.40;99.90;;;;;;4842076;29;20225;-80
2021/01/05 12:54:02;;;;;;;1999.90;999.90;;;3.40;99.90;;;;;;4845555;29;20698;-76
2021/01/05 12:56:30;;;;;;;1999.90;999.90;;;3.40;99.90;;;;;;4845252;29;20233;-78
2021/01/05 12:58:57;;;;;;;1999.90;999.90;;;3.30;99.90;;;;;;4842515;29;20214;-79
2021/01/05 13:01:24;;;;;;;1999.90;999.90;;;3.40;99.90;;;;;;4842352;29;20749;-78
2021/01/05 13:03:51;;;;;;;1999.90;999.90;;;3.40;99.90;;;;;;4842534;29;20756;-78
2021/01/05 13:06:19;;;;;;;1999.90;999.90;;;3.50;99.90;;;;;;4842904;29;20214;-79
2021/01/05 13:08:48;;;;;;;1999.90;999.90;;;3.50;99.90;;;;;;4842521;29;20631;-79
2021/01/05 13:11:17;;;;;;;1999.90;999.90;;;3.40;99.90;;;;;;4843063;29;20649;-78
2021/01/05 13:13:45;;;;;;;1999.90;999.90;;;3.30;99.90;;;;;;4843379;29;20270;-78
2021/01/05 13:16:25;;;;;;;1999.90;999.90;;;3.20;99.90;;;;;;4844267;29;20258;-79
2021/01/05 13:18:52;;;;;;;1999.90;999.90;;;3.10;99.90;;;;;;4844284;29;20213;-78
2021/01/05 13:21:27;;;;;;;1999.90;999.90;;;3.00;99.90;;;;;;4842055;29;20229;-79
2021/01/05 13:23:56;;;;;;;1999.90;999.90;;;3.00;99.90;;;;;;4840907;29;20263;-77
2021/01/05 13:26:24;;;;;;;1999.90;999.90;;;3.00;99.90;;;;;;4841968;29;20201;-81
2021/01/05 13:28:51;;;;;;;1999.90;999.90;;;3.00;99.90;;;;;;4843558;29;20213;-81
2021/01/05 13:31:19;;;;;;;1999.90;999.90;;;3.00;99.90;;;;;;4846573;29;20315;-81
2021/01/05 13:33:46;;;;;;;1999.90;999.90;;;3.10;99.90;;;;;;4847062;29;20209;-81
2021/01/05 13:36:21;;;;;;;1999.90;999.90;;;3.00;99.90;;;;;;4846687;29;20843;-78
2021/01/05 13:38:48;;;;;;;1999.90;999.90;;;3.10;99.90;;;;;;4845686;29;20708;-78
2021/01/05 13:41:26;;;;;;;1999.90;999.90;;;3.00;99.90;;;;;;4846800;29;20229;-80
2021/01/05 13:43:55;;;;;;;1999.90;999.90;;;3.00;99.90;;;;;;4845828;29;20205;-75
2021/01/05 13:46:23;;;;;;;1999.90;999.90;;;3.10;99.90;;;;;;4844167;29;20209;-75
2021/01/05 13:48:51;;;;;;;1999.90;999.90;;;3.00;99.90;;;;;;4843690;29;20675;-75
2021/01/05 13:51:25;;;;;;;1999.90;999.90;;;3.00;99.90;;;;;;4843573;29;20722;-75
2021/01/05 13:53:52;;;;;;;1999.90;999.90;;;3.10;99.90;;;;;;4844045;29;20222;-75
2021/01/05 13:56:20;;;;;;;1999.90;999.90;;;3.20;99.90;;;;;;4843747;29;20229;-75
2021/01/05 13:58:46;;;;;;;1999.90;999.90;;;3.10;99.90;;;;;;4843583;29;20680;-76
2021/01/05 14:01:16;;;;;;;1999.90;999.90;;;3.20;99.90;;;;;;4843478;29;20727;-76
2021/01/05 14:03:44;;;;;;;1999.90;999.90;;;3.20;99.90;;;;;;4843591;29;20221;-77
2021/01/05 14:06:16;;;;;;;1999.90;999.90;;;3.10;99.90;;;;;;4843906;29;20214;-76
2021/01/05 14:08:44;;;;;;;1999.90;999.90;;;3.20;99.90;;;;;;4843268;29;20640;-77
2021/01/05 14:11:12;;;;;;;1999.90;999.90;;;3.10;99.90;;;;;;4841193;29;20240;-77
2021/01/05 14:13:39;;;;;;;1999.90;999.90;;;3.10;99.90;;;;;;4843517;29;20285;-77
2021/01/05 14:16:06;;;;;;;1999.90;999.90;;;3.10;99.90;;;;;;4844338;29;20205;-77
2021/01/05 14:18:34;;;;;;;1999.90;999.90;;;3.10;99.90;;;;;;4843478;29;20205;-77
2021/01/05 14:21:01;;;;;;;1999.90;999.90;;;3.10;99.90;;;;;;4844765;29;20779;-78
2021/01/05 14:23:28;;;;;;;1999.90;999.90;;;3.10;99.90;;;;;;4844935;29;20731;-76
2021/01/05 14:26:00;;;;;;;1999.90;999.90;;;3.00;99.90;;;;;;4844309;29;20277;-76
2021/01/05 14:28:27;;;;;;;1999.90;999.90;;;3.00;99.90;;;;;;4844572;29;20209;-79
2021/01/05 14:30:54;;;;;;;1999.90;999.90;;;2.90;99.90;;;;;;4846016;29;20656;-80
2021/01/05 14:33:20;;;;;;;1999.90;999.90;;;2.90;99.90;;;;;;4845312;29;20250;-79
2021/01/05 14:35:48;;;;;;;1999.90;999.90;;;2.90;99.90;;;;;;4846078;29;20210;-79
2021/01/05 14:38:15;;;;;;;1999.90;999.90;;;2.90;99.90;;;;;;4846593;29;20229;-80
2021/01/05 14:40:45;;;;;;;1999.90;999.90;;;3.00;99.90;;;;;;4846684;29;20229;-79
2021/01/05 14:43:12;;;;;;;1999.90;999.90;;;3.00;99.90;;;;;;4843514;29;20213;-77
2021/01/05 14:45:39;;;;;;;1999.90;999.90;;;2.80;99.90;;;;;;4845377;29;20216;-79
2021/01/05 14:48:07;;;;;;;1999.90;999.90;;;2.90;99.90;;;;;;4842760;29;20238;-82
2021/01/05 14:50:34;;;;;;;1999.90;999.90;;;2.90;99.90;;;;;;4842779;29;20235;-74
2021/01/05 14:53:03;;;;;;;1999.90;999.90;;;2.90;99.90;;;;;;4842592;29;20675;-74
2021/01/05 14:55:30;;;;;;;1999.90;999.90;;;2.80;99.90;;;;;;4842301;29;20217;-76
2021/01/05 14:57:57;;;;;;;1999.90;999.90;;;2.90;99.90;;;;;;4842505;29;20282;-77
2021/01/05 15:00:24;;;;;;;1999.90;999.90;;;2.90;99.90;;;;;;4842435;29;20213;-76
2021/01/05 15:02:51;;;;;;;1999.90;999.90;;;2.70;99.90;;;;;;4842262;29;20209;-76
2021/01/05 15:05:19;;;;;;;1999.90;999.90;;;2.80;99.90;;;;;;4842327;29;20201;-78
2021/01/05 15:07:45;;;;;;;1999.90;999.90;;;2.80;99.90;;;;;;4842408;29;20217;-77
2021/01/05 15:10:15;;;;;;;1999.90;999.90;;;2.80;99.90;;;;;;4843695;29;20209;-78
2021/01/05 15:12:42;;;;;;;1999.90;999.90;;;2.90;99.90;;;;;;4849680;29;20201;-79
2021/01/05 15:15:10;;;;;;;1999.90;999.90;;;2.80;99.90;;;;;;4852689;29;20214;-75
2021/01/05 15:17:42;;;;;;;1999.90;999.90;;;2.70;99.90;;;;;;4849734;29;20243;-76
2021/01/05 15:20:10;;;;;;;1999.90;999.90;;;2.80;99.90;;;;;;4851260;29;20209;-77
2021/01/05 15:22:37;;;;;;;1999.90;999.90;;;2.80;99.90;;;;;;4850927;29;20234;-77
2021/01/05 15:25:05;;;;;;;1999.90;999.90;;;2.80;99.90;;;;;;4851660;29;20209;-76
2021/01/05 15:27:33;;;;;;;1999.90;999.90;;;2.90;99.90;;;;;;4850697;29;20244;-77
2021/01/05 15:30:00;;;;;;;1999.90;999.90;;;3.00;99.90;;;;;;4836615;29;20210;-77
2021/01/05 15:32:26;;;;;;;1999.90;999.90;;;3.00;99.90;;;;;;4838491;29;20285;-76
2021/01/05 15:34:53;;;;;;;1999.90;999.90;;;3.00;99.90;;;;;;4839016;29;20213;-77
2021/01/05 15:37:20;;;;;;;1999.90;999.90;;;3.00;99.90;;;;;;4823744;29;20261;-76
2021/01/05 15:39:47;;;;;;;1999.90;999.90;;;3.20;99.90;;;;;;4823758;29;20206;-76
2021/01/05 15:42:14;;;;;;;1999.90;999.90;;;3.30;99.90;;;;;;4842713;29;20278;-76
2021/01/05 15:44:42;;;;;;;1999.90;999.90;;;3.40;99.90;;;;;;4841942;29;20290;-76
2021/01/05 15:47:08;;;;;;;1999.90;999.90;;;3.30;99.90;;;;;;4841682;29;20258;-76
2021/01/05 15:49:35;;;;;;;1999.90;999.90;;;3.20;99.90;;;;;;4841601;29;20289;-78
2021/01/05 15:52:03;;;;;;;1999.90;999.90;;;3.20;99.90;;;;;;4838000;29;20468;-76
2021/01/05 15:54:30;;;;;;;1999.90;999.90;;;3.20;99.90;;;;;;4856669;29;20208;-78
2021/01/05 15:56:57;;;;;;;1999.90;999.90;;;3.30;99.90;;;;;;4843147;29;20229;-77
2021/01/05 15:59:25;;;;;;;1999.90;999.90;;;3.30;99.90;;;;;;4845330;29;20206;-82
2021/01/05 16:01:56;;;;;;;1999.90;999.90;;;3.30;99.90;;;;;;4844178;29;20233;-78
2021/01/05 16:04:23;;;;;;;1999.90;999.90;;;3.30;99.90;;;;;;4842026;29;20220;-78
2021/01/05 16:06:50;;;;;;;1999.90;999.90;;;3.30;99.90;;;;;;4842185;29;20254;-78
2021/01/05 16:09:17;;;;;;;1999.90;999.90;;;3.30;99.90;;;;;;4843630;29;20309;-79
2021/01/05 16:11:50;;;;;;;1999.90;999.90;;;3.40;99.90;;;;;;4843935;29;20281;-79
2021/01/05 16:14:17;;;;;;;1999.90;999.90;;;3.40;99.90;;;;;;4841972;29;20299;-76
2021/01/05 16:16:44;;;;;;;1999.90;999.90;;;3.40;99.90;;;;;;4841237;29;20225;-77
2021/01/05 16:19:12;;;;;;;1999.90;999.90;;;3.40;99.90;;;;;;4841719;29;20206;-75
2021/01/05 16:21:39;;;;;;;1999.90;999.90;;;3.10;99.90;;;;;;4840921;29;20238;-75
2021/01/05 16:24:09;;;;;;;1999.90;999.90;;;3.00;99.90;;;;;;4841128;29;20269;-75
2021/01/05 16:26:37;;;;;;;1999.90;999.90;;;3.00;99.90;;;;;;4840939;29;20209;-75
2021/01/05 16:29:05;;;;;;;1999.90;999.90;;;3.00;99.90;;;;;;4840785;29;20404;-75
2021/01/05 16:31:40;;;;;;;1999.90;999.90;;;3.10;99.90;;;;;;4840817;29;20610;-75
2021/01/05 16:34:07;;;;;;;1999.90;999.90;;;3.30;99.90;;;;;;4841845;29;20592;-75
2021/01/05 16:36:35;;;;;;;1999.90;999.90;;;3.40;99.90;;;;;;4841164;29;20229;-77
2021/01/05 16:39:03;;;;;;;1999.90;999.90;;;3.40;99.90;;;;;;4841126;29;20212;-76
2021/01/05 16:41:31;;;;;;;1999.90;999.90;;;3.30;99.90;;;;;;4840727;29;20252;-77
2021/01/05 16:43:58;;;;;;;1999.90;999.90;;;3.40;99.90;;;;;;4841054;29;20205;-76
2021/01/05 16:46:24;;;;;;;1999.90;999.90;;;3.30;99.90;;;;;;4840643;29;20274;-76
2021/01/05 16:48:51;;;;;;;1999.90;999.90;;;3.20;99.90;;;;;;4840563;29;20262;-75
2021/01/05 16:51:18;;;;;;;1999.90;999.90;;;3.00;99.90;;;;;;4840745;29;20665;-76
2021/01/05 16:53:46;;;;;;;1999.90;999.90;;;3.00;99.90;;;;;;4840879;29;20640;-75
2021/01/05 16:56:22;;;;;;;1999.90;999.90;;;2.90;99.90;;;;;;4840879;29;20216;-75
2021/01/05 16:58:48;;;;;;;1999.90;999.90;;;2.90;99.90;;;;;;4841079;29;20253;-76
2021/01/05 17:01:16;;;;;;;1999.90;999.90;;;2.90;99.90;;;;;;4837855;29;20727;-77
2021/01/05 17:03:43;;;;;;;1999.90;999.90;;;2.90;99.90;;;;;;4833460;29;20277;-75
2021/01/05 17:06:12;;;;;;;1999.90;999.90;;;2.90;99.90;;;;;;4844346;29;20209;-74
2021/01/05 17:08:40;;;;;;;1999.90;999.90;;;3.00;99.90;;;;;;4843995;29;20202;-76
2021/01/05 17:11:08;;;;;;;1999.90;999.90;;;2.90;99.90;;;;;;4845011;29;20281;-77
2021/01/05 17:13:36;;;;;;;1999.90;999.90;;;2.90;99.90;;;;;;4844586;29;20866;-83
2021/01/05 17:16:04;;;;;;;1999.90;999.90;;;3.00;99.90;;;;;;4909531;23;20267;-77
2021/01/05 17:18:31;;;;;;;1999.90;999.90;;;3.10;99.90;;;;;;4919920;29;20222;-77